sensor_id;sensor_type;location;lat;lon;timestamp;pressure;altitude;pressure_sealevel;temperature;humidity
29121;BME280;16191;49.548;8.658;2023-03-04T00:00:49;101132.19;;;1.06;100.00
29121;BME280;16191;49.548;8.658;2023-03-04T00:03:16;101136.47;;;1.07;100.00
29121;BME280;16191;49.548;8.658;2023-03-04T00:05:42;101136.38;;;1.01;100.00
29121;BME280;16191;49.548;8.658;2023-03-04T00:08:09;101132.84;;;0.93;100.00
29121;BME280;16191;49.548;8.658;2023-03-04T00:10:36;101132.06;;;0.97;100.00
29121;BME280;16191;49.548;8.658;2023-03-04T00:13:02;101138.81;;;0.90;100.00
29121;BME280;16191;49.548;8.658;2023-03-04T00:15:29;101147.34;;;0.89;100.00
29121;BME280;16191;49.548;8.658;2023-03-04T00:17:55;101143.81;;;0.80;100.00
29121;BME280;16191;49.548;8.658;2023-03-04T00:20:22;101144.75;;;0.85;100.00
29121;BME280;16191;49.548;8.658;2023-03-04T00:22:48;101141.34;;;0.89;100.00
29121;BME280;16191;49.548;8.658;2023-03-04T00:25:15;101142.19;;;0.85;100.00
29121;BME280;16191;49.548;8.658;2023-03-04T00:27:42;101145.50;;;0.76;100.00
29121;BME280;16191;49.548;8.658;2023-03-04T00:30:09;101149.78;;;0.77;100.00
29121;BME280;16191;49.548;8.658;2023-03-04T00:32:36;101150.59;;;0.75;100.00
29121;BME280;16191;49.548;8.658;2023-03-04T00:35:04;101148.81;;;0.69;100.00
29121;BME280;16191;49.548;8.658;2023-03-04T00:37:31;101147.91;;;0.65;100.00
29121;BME280;16191;49.548;8.658;2023-03-04T00:39:58;101149.41;;;0.50;100.00
29121;BME280;16191;49.548;8.658;2023-03-04T00:42:24;101153.75;;;0.55;100.00
29121;BME280;16191;49.548;8.658;2023-03-04T00:44:51;101153.69;;;0.51;100.00
29121;BME280;16191;49.548;8.658;2023-03-04T00:47:18;101163.84;;;0.42;100.00
29121;BME280;16191;49.548;8.658;2023-03-04T00:49:44;101161.97;;;0.31;100.00
29121;BME280;16191;49.548;8.658;2023-03-04T00:52:11;101159.34;;;0.28;100.00
29121;BME280;16191;49.548;8.658;2023-03-04T00:54:37;101171.28;;;0.26;100.00
29121;BME280;16191;49.548;8.658;2023-03-04T00:57:04;101162.03;;;0.36;100.00
29121;BME280;16191;49.548;8.658;2023-03-04T00:59:31;101167.84;;;0.26;100.00
29121;BME280;16191;49.548;8.658;2023-03-04T01:01:59;101165.22;;;0.20;100.00
29121;BME280;16191;49.548;8.658;2023-03-04T01:04:25;101164.22;;;0.12;100.00
29121;BME280;16191;49.548;8.658;2023-03-04T01:06:52;101162.59;;;0.17;100.00
29121;BME280;16191;49.548;8.658;2023-03-04T01:09:19;101161.72;;;0.15;100.00
29121;BME280;16191;49.548;8.658;2023-03-04T01:11:45;101152.25;;;0.12;100.00
29121;BME280;16191;49.548;8.658;2023-03-04T01:14:12;101159.09;;;0.12;100.00
29121;BME280;16191;49.548;8.658;2023-03-04T01:16:38;101155.50;;;0.02;100.00
29121;BME280;16191;49.548;8.658;2023-03-04T01:19:05;101162.19;;;-0.08;100.00
29121;BME280;16191;49.548;8.658;2023-03-04T01:21:32;101158.88;;;-0.02;100.00
29121;BME280;16191;49.548;8.658;2023-03-04T01:23:58;101157.94;;;-0.06;100.00
29121;BME280;16191;49.548;8.658;2023-03-04T01:26:25;101152.91;;;-0.01;100.00
29121;BME280;16191;49.548;8.658;2023-03-04T01:28:51;101155.38;;;-0.06;100.00
29121;BME280;16191;49.548;8.658;2023-03-04T01:31:18;101154.56;;;-0.05;100.00
29121;BME280;16191;49.548;8.658;2023-03-04T01:33:45;101142.44;;;-0.12;100.00
29121;BME280;16191;49.548;8.658;2023-03-04T01:36:11;101142.44;;;-0.12;100.00
29121;BME280;16191;49.548;8.658;2023-03-04T01:38:38;101146.72;;;-0.12;100.00
29121;BME280;16191;49.548;8.658;2023-03-04T01:41:07;101130.47;;;-0.11;100.00
29121;BME280;16191;49.548;8.658;2023-03-04T01:43:36;101130.44;;;-0.14;100.00
29121;BME280;16191;49.548;8.658;2023-03-04T01:46:04;101133.88;;;-0.12;100.00
29121;BME280;16191;49.548;8.658;2023-03-04T01:48:36;101130.31;;;-0.20;100.00
29121;BME280;16191;49.548;8.658;2023-03-04T01:51:11;101127.78;;;-0.19;100.00
29121;BME280;16191;49.548;8.658;2023-03-04T01:53:41;101125.94;;;-0.27;100.00
29121;BME280;16191;49.548;8.658;2023-03-04T01:56:22;101126.44;;;-0.48;100.00
29121;BME280;16191;49.548;8.658;2023-03-04T01:59:12;101121.53;;;-0.35;100.00
29121;BME280;16191;49.548;8.658;2023-03-04T02:01:36;101120.66;;;-0.35;100.00
29121;BME280;16191;49.548;8.658;2023-03-04T02:04:04;101122.31;;;-0.39;100.00
29121;BME280;16191;49.548;8.658;2023-03-04T02:06:33;101114.63;;;-0.39;100.00
29121;BME280;16191;49.548;8.658;2023-03-04T02:09:00;101120.56;;;-0.41;100.00
29121;BME280;16191;49.548;8.658;2023-03-04T02:11:27;101119.78;;;-0.37;100.00
29121;BME280;16191;49.548;8.658;2023-03-04T02:13:53;101114.56;;;-0.42;100.00
29121;BME280;16191;49.548;8.658;2023-03-04T02:16:20;101111.13;;;-0.44;100.00
29121;BME280;16191;49.548;8.658;2023-03-04T02:18:47;101109.41;;;-0.45;100.00
29121;BME280;16191;49.548;8.658;2023-03-04T02:21:18;101101.53;;;-0.54;100.00
29121;BME280;16191;49.548;8.658;2023-03-04T02:26:31;101105.09;;;-0.47;100.00
29121;BME280;16191;49.548;8.658;2023-03-04T02:28:58;101105.78;;;-0.56;100.00
29121;BME280;16191;49.548;8.658;2023-03-04T02:31:30;101106.69;;;-0.52;100.00
29121;BME280;16191;49.548;8.658;2023-03-04T02:34:29;101102.53;;;-0.47;100.00
29121;BME280;16191;49.548;8.658;2023-03-04T02:37:17;101101.53;;;-0.54;100.00
29121;BME280;16191;49.548;8.658;2023-03-04T02:40:13;101087.69;;;-0.63;100.00
29121;BME280;16191;49.548;8.658;2023-03-04T02:43:00;101095.50;;;-0.57;100.00
29121;BME280;16191;49.548;8.658;2023-03-04T02:45:49;101102.19;;;-0.64;100.00
29121;BME280;16191;49.548;8.658;2023-03-04T02:48:20;101102.22;;;-0.65;100.00
29121;BME280;16191;49.548;8.658;2023-03-04T02:50:51;101101.22;;;-0.72;100.00
29121;BME280;16191;49.548;8.658;2023-03-04T02:53:18;101096.06;;;-0.74;100.00
29121;BME280;16191;49.548;8.658;2023-03-04T02:55:47;101091.88;;;-0.68;100.00
29121;BME280;16191;49.548;8.658;2023-03-04T02:58:15;101089.22;;;-0.75;100.00
29121;BME280;16191;49.548;8.658;2023-03-04T03:00:42;101090.00;;;-0.77;100.00
29121;BME280;16191;49.548;8.658;2023-03-04T03:03:09;101087.56;;;-0.71;100.00
29121;BME280;16191;49.548;8.658;2023-03-04T03:05:36;101085.97;;;-0.66;100.00
29121;BME280;16191;49.548;8.658;2023-03-04T03:08:04;101089.09;;;-0.81;100.00
29121;BME280;16191;49.548;8.658;2023-03-04T03:10:31;101086.50;;;-0.82;100.00
29121;BME280;16191;49.548;8.658;2023-03-04T03:12:58;101083.88;;;-0.85;100.00
29121;BME280;16191;49.548;8.658;2023-03-04T03:15:25;101086.47;;;-0.84;100.00
29121;BME280;16191;49.548;8.658;2023-03-04T03:17:53;101088.19;;;-0.83;100.00
29121;BME280;16191;49.548;8.658;2023-03-04T03:20:20;101090.66;;;-0.89;100.00
29121;BME280;16191;49.548;8.658;2023-03-04T03:22:46;101088.16;;;-0.84;100.00
29121;BME280;16191;49.548;8.658;2023-03-04T03:25:14;101089.88;;;-0.83;100.00
29121;BME280;16191;49.548;8.658;2023-03-04T03:27:41;101092.53;;;-0.79;100.00
29121;BME280;16191;49.548;8.658;2023-03-04T03:30:12;101091.69;;;-0.79;100.00
29121;BME280;16191;49.548;8.658;2023-03-04T03:32:39;101083.16;;;-0.78;100.00
29121;BME280;16191;49.548;8.658;2023-03-04T03:35:06;101092.38;;;-0.88;100.00
29121;BME280;16191;49.548;8.658;2023-03-04T03:37:33;101091.72;;;-0.78;100.00
29121;BME280;16191;49.548;8.658;2023-03-04T03:39:59;101090.97;;;-0.72;100.00
29121;BME280;16191;49.548;8.658;2023-03-04T03:42:26;101102.97;;;-0.70;100.00
29121;BME280;16191;49.548;8.658;2023-03-04T03:44:53;101095.22;;;-0.73;100.00
29121;BME280;16191;49.548;8.658;2023-03-04T03:47:19;101090.19;;;-0.68;100.00
29121;BME280;16191;49.548;8.658;2023-03-04T03:49:46;101092.75;;;-0.68;100.00
29121;BME280;16191;49.548;8.658;2023-03-04T03:52:12;101093.81;;;-0.55;100.00
29121;BME280;16191;49.548;8.658;2023-03-04T03:54:39;101091.31;;;-0.52;100.00
29121;BME280;16191;49.548;8.658;2023-03-04T03:57:06;101094.75;;;-0.52;100.00
29121;BME280;16191;49.548;8.658;2023-03-04T03:59:32;101093.91;;;-0.51;100.00
29121;BME280;16191;49.548;8.658;2023-03-04T04:01:59;101096.41;;;-0.54;100.00
29121;BME280;16191;49.548;8.658;2023-03-04T04:04:25;101093.72;;;-0.61;100.00
29121;BME280;16191;49.548;8.658;2023-03-04T04:06:52;101094.00;;;-0.46;100.00
29121;BME280;16191;49.548;8.658;2023-03-04T04:09:19;101100.91;;;-0.41;100.00
29121;BME280;16191;49.548;8.658;2023-03-04T04:11:45;101097.59;;;-0.35;100.00
29121;BME280;16191;49.548;8.658;2023-03-04T04:14:13;101089.94;;;-0.33;100.00
29121;BME280;16191;49.548;8.658;2023-03-04T04:16:39;101085.66;;;-0.33;100.00
29121;BME280;16191;49.548;8.658;2023-03-04T04:19:06;101090.81;;;-0.31;100.00
29121;BME280;16191;49.548;8.658;2023-03-04T04:21:33;101081.38;;;-0.34;100.00
29121;BME280;16191;49.548;8.658;2023-03-04T04:23:59;101085.63;;;-0.36;100.00
29121;BME280;16191;49.548;8.658;2023-03-04T04:26:26;101081.25;;;-0.40;100.00
29121;BME280;16191;49.548;8.658;2023-03-04T04:28:52;101082.09;;;-0.41;100.00
29121;BME280;16191;49.548;8.658;2023-03-04T04:31:19;101086.34;;;-0.45;100.00
29121;BME280;16191;49.548;8.658;2023-03-04T04:33:45;101085.41;;;-0.48;100.00
29121;BME280;16191;49.548;8.658;2023-03-04T04:36:13;101092.22;;;-0.50;100.00
29121;BME280;16191;49.548;8.658;2023-03-04T04:38:42;101089.47;;;-0.59;100.00
29121;BME280;16191;49.548;8.658;2023-03-04T04:41:18;101095.19;;;-0.74;100.00
29121;BME280;16191;49.548;8.658;2023-03-04T04:43:46;101092.69;;;-0.71;100.00
29121;BME280;16191;49.548;8.658;2023-03-04T04:46:13;101096.19;;;-0.67;100.00
29121;BME280;16191;49.548;8.658;2023-03-04T04:48:39;101097.94;;;-0.63;100.00
29121;BME280;16191;49.548;8.658;2023-03-04T04:51:06;101094.47;;;-0.67;100.00
29121;BME280;16191;49.548;8.658;2023-03-04T04:53:33;101091.09;;;-0.64;100.00
29121;BME280;16191;49.548;8.658;2023-03-04T04:56:07;101085.25;;;-0.57;100.00
29121;BME280;16191;49.548;8.658;2023-03-04T04:58:35;101088.63;;;-0.58;100.00
29121;BME280;16191;49.548;8.658;2023-03-04T05:01:02;101086.03;;;-0.61;100.00
29121;BME280;16191;49.548;8.658;2023-03-04T05:03:31;101092.81;;;-0.65;100.00
29121;BME280;16191;49.548;8.658;2023-03-04T05:05:58;101096.38;;;-0.55;100.00
29121;BME280;16191;49.548;8.658;2023-03-04T05:08:25;101100.50;;;-0.65;100.00
29121;BME280;16191;49.548;8.658;2023-03-04T05:10:51;101098.97;;;-0.54;100.00
29121;BME280;16191;49.548;8.658;2023-03-04T05:13:18;101103.00;;;-0.68;100.00
29121;BME280;16191;49.548;8.658;2023-03-04T05:15:45;101107.13;;;-0.76;100.00
29121;BME280;16191;49.548;8.658;2023-03-04T05:18:12;101097.06;;;-0.64;100.00
29121;BME280;16191;49.548;8.658;2023-03-04T05:20:39;101098.91;;;-0.58;100.00
29121;BME280;16191;49.548;8.658;2023-03-04T05:23:05;101093.75;;;-0.58;100.00
29121;BME280;16191;49.548;8.658;2023-03-04T05:25:32;101101.38;;;-0.63;100.00
29121;BME280;16191;49.548;8.658;2023-03-04T05:27:59;101095.53;;;-0.56;100.00
29121;BME280;16191;49.548;8.658;2023-03-04T05:30:27;101101.38;;;-0.63;100.00
29121;BME280;16191;49.548;8.658;2023-03-04T05:32:53;101106.50;;;-0.63;100.00
29121;BME280;16191;49.548;8.658;2023-03-04T05:35:20;101100.59;;;-0.59;100.00
29121;BME280;16191;49.548;8.658;2023-03-04T05:37:47;101102.03;;;-0.75;100.00
29121;BME280;16191;49.548;8.658;2023-03-04T05:40:13;101101.19;;;-0.74;100.00
29121;BME280;16191;49.548;8.658;2023-03-04T05:42:40;101099.78;;;-0.56;100.00
29121;BME280;16191;49.548;8.658;2023-03-04T05:45:07;101087.91;;;-0.53;100.00
29121;BME280;16191;49.548;8.658;2023-03-04T05:47:34;101097.38;;;-0.49;100.00
29121;BME280;16191;49.548;8.658;2023-03-04T05:50:00;101091.41;;;-0.48;100.00
29121;BME280;16191;49.548;8.658;2023-03-04T05:52:27;101089.78;;;-0.41;100.00
29121;BME280;16191;49.548;8.658;2023-03-04T05:54:53;101096.63;;;-0.42;100.00
29121;BME280;16191;49.548;8.658;2023-03-04T05:57:20;101091.47;;;-0.45;100.00
29121;BME280;16191;49.548;8.658;2023-03-04T05:59:47;101094.88;;;-0.43;100.00
29121;BME280;16191;49.548;8.658;2023-03-04T06:02:13;101094.47;;;-0.67;100.00
29121;BME280;16191;49.548;8.658;2023-03-04T06:04:40;101105.91;;;-0.50;100.00
29121;BME280;16191;49.548;8.658;2023-03-04T06:07:06;101101.75;;;-0.42;100.00
29121;BME280;16191;49.548;8.658;2023-03-04T06:09:33;101112.97;;;-0.35;100.00
29121;BME280;16191;49.548;8.658;2023-03-04T06:12:00;101112.03;;;-0.40;100.00
29121;BME280;16191;49.548;8.658;2023-03-04T06:14:26;101114.63;;;-0.39;100.00
29121;BME280;16191;49.548;8.658;2023-03-04T06:16:53;101122.50;;;-0.28;100.00
29121;BME280;16191;49.548;8.658;2023-03-04T06:19:20;101123.25;;;-0.33;100.00
29121;BME280;16191;49.548;8.658;2023-03-04T06:21:46;101119.88;;;-0.32;100.00
29121;BME280;16191;49.548;8.658;2023-03-04T06:24:13;101126.81;;;-0.27;100.00
29121;BME280;16191;49.548;8.658;2023-03-04T06:26:40;101129.50;;;-0.18;100.00
29121;BME280;16191;49.548;8.658;2023-03-04T06:29:06;101121.47;;;-0.38;100.00
29121;BME280;16191;49.548;8.658;2023-03-04T06:31:33;101123.47;;;-0.23;100.00
29121;BME280;16191;49.548;8.658;2023-03-04T06:34:00;101135.47;;;-0.19;100.00
29121;BME280;16191;49.548;8.658;2023-03-04T06:36:26;101142.06;;;-0.35;100.00
29121;BME280;16191;49.548;8.658;2023-03-04T06:38:53;101131.22;;;-0.18;100.00
29121;BME280;16191;49.548;8.658;2023-03-04T06:41:20;101139.06;;;-0.09;100.00
29121;BME280;16191;49.548;8.658;2023-03-04T06:43:46;101146.59;;;-0.18;100.00
29121;BME280;16191;49.548;8.658;2023-03-04T06:46:13;101139.84;;;-0.13;100.00
29121;BME280;16191;49.548;8.658;2023-03-04T06:48:40;101143.41;;;-0.05;100.00
29121;BME280;16191;49.548;8.658;2023-03-04T06:51:08;101140.09;;;0.02;100.00
29121;BME280;16191;49.548;8.658;2023-03-04T06:53:36;101145.38;;;0.11;100.00
29121;BME280;16191;49.548;8.658;2023-03-04T06:56:03;101141.03;;;0.07;100.00
29121;BME280;16191;49.548;8.658;2023-03-04T06:58:30;101150.41;;;0.05;100.00
29121;BME280;16191;49.548;8.658;2023-03-04T07:00:56;101147.78;;;0.02;100.00
29121;BME280;16191;49.548;8.658;2023-03-04T07:03:23;101148.50;;;-0.08;100.00
29121;BME280;16191;49.548;8.658;2023-03-04T07:05:50;101147.00;;;0.06;100.00
29121;BME280;16191;49.548;8.658;2023-03-04T07:08:16;101151.19;;;0.01;100.00
29121;BME280;16191;49.548;8.658;2023-03-04T07:10:45;101158.03;;;-0.01;100.00
29121;BME280;16191;49.548;8.658;2023-03-04T07:13:12;101157.81;;;-0.13;100.00
29121;BME280;16191;49.548;8.658;2023-03-04T07:15:39;101166.22;;;-0.20;100.00
29121;BME280;16191;49.548;8.658;2023-03-04T07:18:05;101166.22;;;-0.23;100.00
29121;BME280;16191;49.548;8.658;2023-03-04T07:20:32;101161.03;;;-0.25;100.00
29121;BME280;16191;49.548;8.658;2023-03-04T07:22:59;101168.78;;;-0.23;100.00
29121;BME280;16191;49.548;8.658;2023-03-04T07:25:25;101171.69;;;-0.02;100.00
29121;BME280;16191;49.548;8.658;2023-03-04T07:27:52;101176.00;;;-0.01;100.00
29121;BME280;16191;49.548;8.658;2023-03-04T07:30:19;101177.72;;;0.00;100.00
29121;BME280;16191;49.548;8.658;2023-03-04T07:32:46;101173.50;;;0.05;100.00
29121;BME280;16191;49.548;8.658;2023-03-04T07:35:13;101177.22;;;0.21;100.00
29121;BME280;16191;49.548;8.658;2023-03-04T07:37:39;101185.00;;;0.28;100.00
29121;BME280;16191;49.548;8.658;2023-03-04T07:40:07;101179.84;;;0.27;100.00
29121;BME280;16191;49.548;8.658;2023-03-04T07:42:34;101184.22;;;0.32;100.00
29121;BME280;16191;49.548;8.658;2023-03-04T07:45:07;101186.97;;;0.43;100.00
29121;BME280;16191;49.548;8.658;2023-03-04T07:47:35;101184.41;;;0.43;100.00
29121;BME280;16191;49.548;8.658;2023-03-04T07:50:01;101185.25;;;0.42;100.00
29121;BME280;16191;49.548;8.658;2023-03-04T07:52:28;101191.28;;;0.46;100.00
29121;BME280;16191;49.548;8.658;2023-03-04T07:54:55;101189.59;;;0.48;100.00
29121;BME280;16191;49.548;8.658;2023-03-04T07:57:21;101191.41;;;0.53;100.00
29121;BME280;16191;49.548;8.658;2023-03-04T07:59:48;101186.13;;;0.46;100.00
29121;BME280;16191;49.548;8.658;2023-03-04T08:02:15;101184.16;;;0.28;100.00
29121;BME280;16191;49.548;8.658;2023-03-04T08:04:41;101192.69;;;0.27;100.00
29121;BME280;16191;49.548;8.658;2023-03-04T08:07:08;101194.16;;;0.11;100.00
29121;BME280;16191;49.548;8.658;2023-03-04T08:09:35;101191.66;;;0.16;100.00
29121;BME280;16191;49.548;8.658;2023-03-04T08:12:02;101194.22;;;0.16;100.00
29121;BME280;16191;49.548;8.658;2023-03-04T08:14:29;101205.16;;;0.06;100.00
29121;BME280;16191;49.548;8.658;2023-03-04T08:16:55;101199.16;;;0.04;100.00
29121;BME280;16191;49.548;8.658;2023-03-04T08:19:22;101200.38;;;0.27;100.00
29121;BME280;16191;49.548;8.658;2023-03-04T08:21:51;101200.66;;;0.44;100.00
29121;BME280;16191;49.548;8.658;2023-03-04T08:24:18;101205.56;;;0.28;100.00
29121;BME280;16191;49.548;8.658;2023-03-04T08:26:47;101205.72;;;0.38;100.00
29121;BME280;16191;49.548;8.658;2023-03-04T08:29:16;101203.09;;;0.34;100.00
29121;BME280;16191;49.548;8.658;2023-03-04T08:31:43;101202.38;;;0.43;100.00
29121;BME280;16191;49.548;8.658;2023-03-04T08:34:15;101210.03;;;0.40;100.00
29121;BME280;16191;49.548;8.658;2023-03-04T08:36:41;101200.47;;;0.31;100.00
29121;BME280;16191;49.548;8.658;2023-03-04T08:39:10;101199.88;;;0.49;100.00
29121;BME280;16191;49.548;8.658;2023-03-04T08:41:37;101198.25;;;0.54;100.00
29121;BME280;16191;49.548;8.658;2023-03-04T08:44:04;101209.25;;;0.47;100.00
29121;BME280;16191;49.548;8.658;2023-03-04T08:46:31;101204.09;;;0.43;100.00
29121;BME280;16191;49.548;8.658;2023-03-04T08:48:57;101204.34;;;0.59;100.00
29121;BME280;16191;49.548;8.658;2023-03-04T08:51:24;101207.94;;;0.72;100.00
29121;BME280;16191;49.548;8.658;2023-03-04T08:53:51;101204.72;;;0.87;100.00
29121;BME280;16191;49.548;8.658;2023-03-04T08:56:18;101198.72;;;0.88;100.00
29121;BME280;16191;49.548;8.658;2023-03-04T08:58:44;101198.66;;;0.80;100.00
29121;BME280;16191;49.548;8.658;2023-03-04T09:01:13;101203.06;;;0.92;100.00
29121;BME280;16191;49.548;8.658;2023-03-04T09:03:40;101202.31;;;0.97;100.00
29121;BME280;16191;49.548;8.658;2023-03-04T09:06:07;101195.47;;;0.99;100.00
29121;BME280;16191;49.548;8.658;2023-03-04T09:08:35;101196.09;;;0.82;100.00
29121;BME280;16191;49.548;8.658;2023-03-04T09:11:02;101203.06;;;0.90;100.00
29121;BME280;16191;49.548;8.658;2023-03-04T09:13:30;101202.97;;;0.83;100.00
29121;BME280;16191;49.548;8.658;2023-03-04T09:15:57;101197.28;;;1.05;100.00
29121;BME280;16191;49.548;8.658;2023-03-04T09:18:25;101197.13;;;0.94;100.00
29121;BME280;16191;49.548;8.658;2023-03-04T09:20:51;101195.41;;;0.95;100.00
29121;BME280;16191;49.548;8.658;2023-03-04T09:23:18;101201.47;;;1.00;100.00
29121;BME280;16191;49.548;8.658;2023-03-04T09:25:46;101206.00;;;1.19;100.00
29121;BME280;16191;49.548;8.658;2023-03-04T09:28:13;101200.78;;;1.13;100.00
29121;BME280;16191;49.548;8.658;2023-03-04T09:30:40;101200.75;;;1.12;100.00
29121;BME280;16191;49.548;8.658;2023-03-04T09:33:07;101203.28;;;1.09;100.00
29121;BME280;16191;49.548;8.658;2023-03-04T09:35:34;101195.84;;;1.31;100.00
29121;BME280;16191;49.548;8.658;2023-03-04T09:38:01;101196.03;;;1.45;100.00
29121;BME280;16191;49.548;8.658;2023-03-04T09:40:32;101185.03;;;1.60;100.00
29121;BME280;16191;49.548;8.658;2023-03-04T09:43:04;101188.38;;;1.53;100.00
29121;BME280;16191;49.548;8.658;2023-03-04T09:45:54;101191.13;;;1.66;100.00
29121;BME280;16191;49.548;8.658;2023-03-04T09:48:22;101190.25;;;1.66;100.00
29121;BME280;16191;49.548;8.658;2023-03-04T10:03:09;101188.56;;;1.68;100.00
29121;BME280;16191;49.548;8.658;2023-03-04T10:05:52;101193.75;;;1.69;100.00
29121;BME280;16191;49.548;8.658;2023-03-04T10:08:37;101206.56;;;1.66;100.00
29121;BME280;16191;49.548;8.658;2023-03-04T10:11:09;101197.13;;;1.67;100.00
29121;BME280;16191;49.548;8.658;2023-03-04T10:13:44;101198.97;;;1.79;100.00
29121;BME280;16191;49.548;8.658;2023-03-04T10:16:20;101192.31;;;2.02;100.00
29121;BME280;16191;49.548;8.658;2023-03-04T10:21:38;101191.41;;;1.95;100.00
29121;BME280;16191;49.548;8.658;2023-03-04T10:24:11;101193.19;;;2.04;100.00
29121;BME280;16191;49.548;8.658;2023-03-04T10:26:41;101189.13;;;2.29;100.00
29121;BME280;16191;49.548;8.658;2023-03-04T10:29:18;101190.94;;;2.42;100.00
29121;BME280;16191;49.548;8.658;2023-03-04T10:31:45;101194.38;;;2.38;100.00
29121;BME280;16191;49.548;8.658;2023-03-04T10:34:13;101189.28;;;2.50;100.00
29121;BME280;16191;49.548;8.658;2023-03-04T10:36:55;101191.75;;;2.35;100.00
29121;BME280;16191;49.548;8.658;2023-03-04T10:41:55;101186.47;;;2.21;100.00
29121;BME280;16191;49.548;8.658;2023-03-04T10:44:22;101189.94;;;2.25;100.00
29121;BME280;16191;49.548;8.658;2023-03-04T10:46:52;101186.53;;;2.27;100.00
29121;BME280;16191;49.548;8.658;2023-03-04T10:49:20;101186.47;;;2.21;100.00
29121;BME280;16191;49.548;8.658;2023-03-04T10:51:49;101192.63;;;2.35;100.00
29121;BME280;16191;49.548;8.658;2023-03-04T10:57:00;101178.25;;;2.72;100.00
29121;BME280;16191;49.548;8.658;2023-03-04T10:59:34;101168.75;;;2.59;100.00
29121;BME280;16191;49.548;8.658;2023-03-04T11:02:14;101167.84;;;2.54;100.00
29121;BME280;16191;49.548;8.658;2023-03-04T11:04:41;101161.91;;;2.67;100.00
29121;BME280;16191;49.548;8.658;2023-03-04T11:07:10;101167.88;;;2.59;100.00
29121;BME280;16191;49.548;8.658;2023-03-04T11:09:37;101169.59;;;2.63;100.00
29121;BME280;16191;49.548;8.658;2023-03-04T11:12:12;101162.84;;;2.77;100.00
29121;BME280;16191;49.548;8.658;2023-03-04T11:14:43;101158.63;;;2.97;100.00
29121;BME280;16191;49.548;8.658;2023-03-04T11:17:30;101151.75;;;2.93;100.00
29121;BME280;16191;49.548;8.658;2023-03-04T11:20:22;101149.22;;;3.01;100.00
29121;BME280;16191;49.548;8.658;2023-03-04T11:22:53;101144.91;;;3.06;100.00
29121;BME280;16191;49.548;8.658;2023-03-04T11:25:46;101135.56;;;3.25;100.00
29121;BME280;16191;49.548;8.658;2023-03-04T11:28:19;101135.47;;;3.00;100.00
29121;BME280;16191;49.548;8.658;2023-03-04T11:30:57;101136.34;;;3.13;100.00
29121;BME280;16191;49.548;8.658;2023-03-04T11:33:27;101132.97;;;3.23;100.00
29121;BME280;16191;49.548;8.658;2023-03-04T11:39:13;101135.56;;;3.32;100.00
29121;BME280;16191;49.548;8.658;2023-03-04T11:42:32;101132.13;;;3.38;100.00
29121;BME280;16191;49.548;8.658;2023-03-04T11:44:38;101125.28;;;3.52;100.00
29121;BME280;16191;49.548;8.658;2023-03-04T11:47:18;101129.59;;;3.68;100.00
29121;BME280;16191;49.548;8.658;2023-03-04T11:50:08;101127.00;;;3.68;100.00
29121;BME280;16191;49.548;8.658;2023-03-04T12:00:37;101127.03;;;3.82;100.00
29121;BME280;16191;49.548;8.658;2023-03-04T12:03:26;101117.50;;;3.48;100.00
29121;BME280;16191;49.548;8.658;2023-03-04T12:09:21;101112.41;;;3.98;100.00
29121;BME280;16191;49.548;8.658;2023-03-04T12:14:54;101100.34;;;4.20;100.00
29121;BME280;16191;49.548;8.658;2023-03-04T12:17:29;101099.47;;;4.11;100.00
29121;BME280;16191;49.548;8.658;2023-03-04T12:22:44;101096.91;;;4.24;100.00
29121;BME280;16191;49.548;8.658;2023-03-04T12:33:40;101096.06;;;3.96;100.00
29121;BME280;16191;49.548;8.658;2023-03-04T12:36:21;101086.59;;;4.02;100.00
29121;BME280;16191;49.548;8.658;2023-03-04T12:39:05;101097.75;;;4.12;100.00
29121;BME280;16191;49.548;8.658;2023-03-04T12:41:52;101083.94;;;4.34;100.00
29121;BME280;16191;49.548;8.658;2023-03-04T12:44:20;101081.34;;;4.43;100.00
29121;BME280;16191;49.548;8.658;2023-03-04T12:47:04;101081.41;;;4.13;100.00
29121;BME280;16191;49.548;8.658;2023-03-04T12:49:45;101078.81;;;4.33;100.00
29121;BME280;16191;49.548;8.658;2023-03-04T12:55:08;101082.28;;;3.78;100.00
29121;BME280;16191;49.548;8.658;2023-03-04T12:57:36;101074.53;;;4.03;100.00
29121;BME280;16191;49.548;8.658;2023-03-04T13:05:23;101068.47;;;4.21;100.00
29121;BME280;16191;49.548;8.658;2023-03-04T13:08:10;101061.56;;;4.36;100.00
29121;BME280;16191;49.548;8.658;2023-03-04T13:10:38;101053.78;;;4.44;100.00
29121;BME280;16191;49.548;8.658;2023-03-04T13:16:27;101052.06;;;4.49;100.00
29121;BME280;16191;49.548;8.658;2023-03-04T13:18:52;101053.78;;;4.41;100.00
29121;BME280;16191;49.548;8.658;2023-03-04T13:21:22;101053.78;;;4.44;100.00
29121;BME280;16191;49.548;8.658;2023-03-04T13:23:51;101046.88;;;4.52;100.00
29121;BME280;16191;49.548;8.658;2023-03-04T13:26:26;101043.41;;;4.56;100.00
29121;BME280;16191;49.548;8.658;2023-03-04T13:29:30;101047.81;;;4.27;100.00
29121;BME280;16191;49.548;8.658;2023-03-04T13:32:09;101049.53;;;4.28;100.00
29121;BME280;16191;49.548;8.658;2023-03-04T13:37:36;101037.47;;;4.31;100.00
29121;BME280;16191;49.548;8.658;2023-03-04T13:42:52;101033.13;;;4.45;100.00
29121;BME280;16191;49.548;8.658;2023-03-04T13:45:34;101024.50;;;4.40;100.00
29121;BME280;16191;49.548;8.658;2023-03-04T13:48:24;101035.78;;;4.12;100.00
29121;BME280;16191;49.548;8.658;2023-03-04T13:50:52;101026.28;;;4.22;100.00
29121;BME280;16191;49.548;8.658;2023-03-04T13:56:11;101015.03;;;4.36;100.00
29121;BME280;16191;49.548;8.658;2023-03-04T13:58:40;101014.16;;;4.40;100.00
29121;BME280;16191;49.548;8.658;2023-03-04T14:01:23;101010.72;;;4.41;100.00
29121;BME280;16191;49.548;8.658;2023-03-04T14:03:50;101009.06;;;4.14;100.00
29121;BME280;16191;49.548;8.658;2023-03-04T14:06:23;101000.44;;;4.28;100.00
29121;BME280;16191;49.548;8.658;2023-03-04T14:08:51;101003.84;;;4.40;100.00